Southern Sonoma County Latest

20 Stations

15 Minute Data
as of 5/7/26 10:04 PM PDT
Station Date Time Temp (°F) RH (%) Dew Pt (°F) Wind Spd (mph) Wind Dir (°) Wind Gust (mph) Latest Rain (In) Daily Rain (In) Daily Min Temp (°F) Daily Max Temp (°F)
Upper Rincon Valley 5/7/26 2200 50.6   0.2 96   2 49.4   0.3 0.1   0.1 N | 0 1.0   1.0 0.00 0.00 48.1   2.4 67.6   2.6
Lower Bennett Valley 5/7/26 2200 52.2   0.5 95   1 51.0   0.2 5.6   0.9 NNW | 347 9.3   0.7 0.00 0.00 49.9   2.8 68.7   3.5
Kenwood (Wildwood) 5/7/26 2200 53.5   0.1 93   1 51.5   0.6 3.7   1.5 NNE | 19 6.6   2.6 0.00 0.00 47.8   5.4 72.9   0.4
Crane Creek (Ranch 62) 5/7/26 2200 52.9   0.7 92   0 50.6   0.7 2.7   0.2 SSE | 164 6.1   0.6 0.00 0.00 50.8   2.7 67.8   4.2
Rohnert Park-West (Stony Point) 5/7/26 2200 52.4   0.4 94   1 50.8   0.2 1.3   1.1 SSW | 192 5.3   0.6 0.00 0.00 51.2   1.5 64.8   4.0
Rice-Spivak Vineyard 5/7/26 2200 51.6   0.6 - - - - - - - 50.8   1.3 66.8   3.9
Cartograph Wines Base 5/7/26 2200 51.5   0.7 96   1 50.5   0.4 6.9   2.3 SSW | 213 14.3   3.3 0.00 0.00 50.0   2.1 63.3   2.9
Cartograph Wines Remote 5/7/26 2200 51.9   0.3 - - - - - - - 50.9   1.3 63.7   5.1
Penngrove (Asellus) 5/7/26 2200 53.0   0.7 90   0 50.1   0.7 2.2   0.4 SSW | 199 5.5   0.6 0.00 0.00 51.0   2.7 66.3   4.3
Sonoma Valley (Bedrock) 5/7/26 2200 52.6   2.1 89   6 49.5   0.3 - - - 0.00 0.00 48.0   5.8 74.8   0.8
Sonoma-West (Arnold) 5/7/26 2200 53.0   1.5 90   3 50.3   0.6 4.2   0.6 SW | 218 7.5   0.2 0.00 0.00 48.7   5.7 75.7   1.3
Sonoma Valley HS 5/7/26 2200 53.4   1.3 95   3 52.1   0.4 2.6   0.1 WSW | 246 4.8   0.3 0.00 0.01 51.4   3.0 73.0   0.1
Sonoma East (Bundschu01) 5/7/26 2200 52.8   1.4 91   2 50.1   0.7 0.4   1.7 SSE | 147 2.4   3.1 0.00 0.00 50.9   3.1 72.7   2.2
Sonoma-SE (Napoli) 5/7/26 2200 53.1   1.1 90   2 50.3   0.3 3.0   2.1 WNW | 298 6.8   3.4 0.00 0.00 51.5   2.4 73.6   2.8
Schellville (Sasaki) 2/7/26 1900 53.4   2.2 88   10 49.9   1.0 3.3   1.8 SW | 225 5.8   4.0 0.00 0.00 47.0   0.8 62.8   8.4
Petaluma (Ranch 10) 5/7/26 2200 54.3   0.5 86   0 50.2   0.5 5.6   0.7 WNW | 288 12.0   0.7 0.00 0.00 52.2   2.4 69.7   4.0
Carneros (Ranch 71) 5/7/26 2200 52.0   1.1 94   2 50.2   0.5 9.7   1.0 W | 276 15.7   2.3 0.00 0.00 50.8   2.2 71.8   0.5
Ricci Vineyards (Carneros) 5/7/26 2200 52.8   1.2 91   1 50.1   0.8 9.6   0.0 WNW | 283 16.7   1.4 0.00 0.00 51.4   2.5 74.4   0.8
Carneros Upper (Ranch 81) 5/7/26 2200 52.1   1.0 92   1 49.7   0.8 12.2   1.5 W | 264 17.3   1.0 - - 50.9   2.2 73.2   0.2
Carneros Lower (Ranch 81) 5/7/26 2200 52.5   1.1 92   1 50.2   0.8 0.7   0.7 SSE | 160 3.7   3.4 0.00 0.01 51.1   2.5 78.0   2.8
Max     54.3 96 52.1 12.2 - 17.3 0.00 0.01 52.2 78.0
Avg     52.5 92 50.4 4.4 - 8.4 0.00 - - -
Min     50.6 86 49.4 0.1 - 1.0 0.00 0.00 47.8 63.3